createdAt,value
2018-11-20T00:07:44.795Z,86.40
2018-11-20T00:18:08.879Z,86.40
2018-11-20T00:28:25.722Z,85.50
2018-11-20T00:38:49.886Z,86.10
2018-11-20T00:49:13.996Z,87.00
2018-11-20T00:59:38.316Z,87.60
2018-11-20T01:10:20.237Z,87.50
2018-11-20T01:20:42.889Z,86.80
2018-11-20T01:31:12.813Z,85.70
2018-11-20T01:41:34.673Z,85.30
2018-11-20T01:51:58.820Z,85.00
2018-11-20T02:02:34.751Z,84.60
2018-11-20T02:12:57.552Z,84.30
2018-11-20T02:23:22.369Z,85.40
2018-11-20T02:33:44.875Z,85.20
2018-11-20T02:44:18.032Z,85.80
2018-11-20T02:54:53.838Z,85.50
2018-11-20T03:05:26.024Z,85.50
2018-11-20T03:15:55.922Z,85.50
2018-11-20T03:26:18.990Z,85.00
2018-11-20T03:36:41.458Z,85.20
2018-11-20T03:47:05.692Z,84.80
2018-11-20T03:57:27.894Z,85.20
2018-11-20T04:08:03.975Z,85.20
2018-11-20T04:18:43.159Z,86.00
2018-11-20T04:29:13.769Z,87.10
2018-11-20T04:39:37.873Z,88.00
2018-11-20T04:49:56.471Z,88.80
2018-11-20T05:00:32.290Z,88.60
2018-11-20T05:10:56.420Z,88.90
2018-11-20T05:21:20.541Z,88.30
2018-11-20T05:31:39.495Z,88.30
2018-11-20T05:42:18.715Z,87.90
2018-11-20T05:52:48.178Z,87.40
2018-11-20T06:03:03.829Z,87.60
2018-11-20T06:13:26.574Z,89.20
2018-11-20T06:24:01.038Z,88.60
2018-11-20T06:34:20.876Z,87.20
2018-11-20T06:44:43.442Z,87.10
2018-11-20T06:55:06.005Z,87.90
2018-11-20T07:05:45.043Z,88.80
2018-11-20T07:16:37.902Z,88.60
2018-11-20T07:26:52.457Z,87.90
2018-11-20T07:37:14.970Z,87.30
2018-11-20T07:47:34.366Z,86.50
2018-11-20T07:57:58.500Z,87.40
2018-11-20T08:09:07.212Z,85.00
2018-11-20T08:19:34.163Z,85.60
2018-11-20T08:29:50.608Z,85.90
2018-11-20T08:40:12.072Z,85.10
2018-11-20T08:50:38.287Z,84.60
2018-11-20T09:01:04.449Z,84.30
2018-11-20T09:11:22.849Z,82.80
2018-11-20T09:21:44.849Z,82.80
2018-11-20T09:32:06.814Z,81.10
2018-11-20T09:42:27.854Z,81.30
2018-11-20T09:52:51.331Z,79.70
2018-11-20T10:03:12.797Z,80.10
2018-11-20T10:13:34.862Z,81.10
2018-11-20T10:34:11.214Z,77.20
2018-11-20T10:44:34.488Z,76.60
2018-11-20T10:55:03.082Z,81.40
2018-11-20T11:05:26.005Z,76.50
2018-11-20T11:15:55.265Z,60.00
2018-11-20T11:26:36.358Z,58.90
2018-11-20T11:36:55.296Z,56.60
2018-11-20T11:47:27.177Z,50.30
2018-11-20T11:57:47.102Z,48.70
2018-11-20T12:08:09.944Z,46.80
2018-11-20T12:18:31.431Z,47.60
2018-11-20T12:28:53.145Z,56.20
2018-11-20T12:39:27.202Z,60.70
2018-11-20T12:49:51.930Z,62.90
2018-11-20T13:00:19.855Z,64.80
2018-11-20T13:10:43.187Z,65.90
2018-11-20T13:21:04.708Z,66.50
2018-11-20T13:31:28.013Z,66.50
2018-11-20T13:41:55.158Z,65.90
2018-11-20T13:52:20.407Z,67.80
2018-11-20T14:02:55.671Z,69.40
2018-11-20T14:13:24.753Z,69.80
2018-11-20T14:24:05.761Z,71.50
2018-11-20T14:34:47.095Z,72.10
2018-11-20T14:45:19.212Z,73.20
2018-11-20T14:55:41.126Z,74.40
2018-11-20T15:06:13.097Z,76.40
2018-11-20T15:16:41.830Z,76.80
2018-11-20T15:27:03.858Z,78.10
2018-11-20T15:37:19.765Z,79.60
2018-11-20T15:47:39.675Z,80.10
2018-11-20T15:58:05.477Z,81.30
2018-11-20T16:08:28.782Z,82.00
2018-11-20T16:18:57.783Z,83.40
2018-11-20T16:29:24.067Z,84.70
2018-11-20T16:39:45.715Z,86.40
2018-11-20T16:50:11.758Z,86.60
2018-11-20T17:00:33.691Z,87.00
2018-11-20T17:10:56.226Z,87.20
2018-11-20T17:21:19.574Z,87.90
2018-11-20T17:31:51.977Z,88.50
2018-11-20T17:42:13.961Z,88.90
2018-11-20T17:52:37.303Z,88.80
2018-11-20T18:02:54.637Z,89.10
2018-11-20T18:13:31.764Z,89.10
2018-11-20T18:23:55.103Z,89.70
2018-11-20T18:34:12.579Z,89.30
2018-11-20T18:44:30.647Z,89.10
2018-11-20T18:54:57.225Z,89.90
2018-11-20T19:05:18.872Z,90.00
2018-11-20T19:15:54.171Z,90.30
2018-11-20T19:26:15.654Z,90.40
2018-11-20T19:36:41.821Z,90.30
2018-11-20T19:47:03.383Z,90.70
2018-11-20T19:57:24.030Z,90.60
2018-11-20T20:07:45.784Z,90.70
2018-11-20T20:18:07.393Z,90.70
2018-11-20T20:28:36.904Z,90.70
2018-11-20T20:39:06.189Z,90.60
2018-11-20T20:49:35.674Z,90.60
2018-11-20T21:00:07.831Z,90.60
2018-11-20T21:10:22.770Z,90.80
2018-11-20T21:20:44.550Z,91.00
2018-11-20T21:31:10.313Z,91.00
2018-11-20T21:41:36.669Z,90.90
2018-11-20T21:51:56.760Z,91.00
2018-11-20T22:02:18.522Z,91.10
2018-11-20T22:12:56.598Z,91.00
2018-11-20T22:23:18.190Z,91.10
2018-11-20T22:33:50.562Z,91.20
2018-11-20T22:44:28.834Z,91.00
2018-11-20T22:54:54.719Z,90.80
2018-11-20T23:05:15.303Z,91.00
2018-11-20T23:15:19.543Z,90.90
2018-11-20T23:25:23.785Z,90.70
2018-11-20T23:35:27.977Z,90.70
2018-11-20T23:45:32.192Z,90.50
2018-11-20T23:55:36.461Z,90.10
